createdAt,value
2023-06-30T00:00:42.412Z,21.00
2023-06-30T00:03:10.639Z,21.00
2023-06-30T00:05:38.852Z,21.00
2023-06-30T00:08:09.801Z,21.00
2023-06-30T00:10:37.977Z,21.00
2023-06-30T00:13:06.037Z,20.90
2023-06-30T00:15:35.490Z,20.90
2023-06-30T00:18:03.608Z,20.90
2023-06-30T00:20:31.698Z,20.90
2023-06-30T00:22:59.775Z,20.90
2023-06-30T00:25:27.818Z,20.80
2023-06-30T00:27:55.899Z,20.80
2023-06-30T00:30:23.968Z,20.80
2023-06-30T00:32:53.468Z,20.90
2023-06-30T00:35:21.873Z,20.80
2023-06-30T00:37:50.008Z,20.80
2023-06-30T00:40:18.965Z,20.80
2023-06-30T00:42:47.041Z,20.80
2023-06-30T00:45:15.099Z,20.80
2023-06-30T00:47:43.752Z,20.80
2023-06-30T00:50:13.904Z,20.80
2023-06-30T00:52:43.453Z,20.70
2023-06-30T00:55:11.540Z,20.60
2023-06-30T00:57:39.621Z,20.60
2023-06-30T01:00:12.341Z,20.50
2023-06-30T01:02:46.200Z,20.50
2023-06-30T01:05:19.834Z,20.40
2023-06-30T01:07:50.194Z,20.40
2023-06-30T01:10:25.359Z,20.20
2023-06-30T01:12:53.558Z,20.10
2023-06-30T01:15:21.656Z,20.00
2023-06-30T01:17:50.717Z,20.00
2023-06-30T01:20:20.375Z,19.80
2023-06-30T01:22:51.802Z,19.70
2023-06-30T01:25:21.139Z,19.60
2023-06-30T01:27:50.517Z,19.50
2023-06-30T01:30:19.723Z,19.50
2023-06-30T01:32:48.699Z,19.60
2023-06-30T01:35:16.783Z,19.60
2023-06-30T01:37:46.244Z,19.60
2023-06-30T01:40:14.528Z,19.50
2023-06-30T01:42:42.614Z,19.50
2023-06-30T01:45:11.876Z,19.50
2023-06-30T01:47:39.986Z,19.50
2023-06-30T01:50:08.795Z,19.50
2023-06-30T01:52:36.959Z,19.50
2023-06-30T01:55:07.144Z,19.50
2023-06-30T01:57:35.438Z,19.50
2023-06-30T02:00:04.500Z,19.50
2023-06-30T02:02:40.588Z,19.50
2023-06-30T02:05:10.695Z,19.50
2023-06-30T02:07:38.831Z,19.50
2023-06-30T02:10:11.637Z,19.50
2023-06-30T02:12:39.693Z,19.50
2023-06-30T02:15:10.064Z,19.60
2023-06-30T02:17:38.169Z,19.50
2023-06-30T02:20:08.859Z,19.60
2023-06-30T02:22:36.923Z,19.60
2023-06-30T02:25:05.606Z,19.50
2023-06-30T02:27:35.020Z,19.50
2023-06-30T02:30:06.606Z,19.50
2023-06-30T02:32:39.231Z,19.50
2023-06-30T02:35:08.569Z,19.50
2023-06-30T02:37:36.915Z,19.50
2023-06-30T02:40:05.987Z,19.40
2023-06-30T02:42:35.446Z,19.40
2023-06-30T02:45:05.210Z,19.30
2023-06-30T02:47:33.918Z,19.40
2023-06-30T02:50:02.062Z,19.30
2023-06-30T02:52:32.269Z,19.30
2023-06-30T02:55:00.365Z,19.30
2023-06-30T02:57:28.482Z,19.40
2023-06-30T02:59:58.640Z,19.40
2023-06-30T03:02:27.809Z,19.40
2023-06-30T03:04:57.234Z,19.40
2023-06-30T03:07:26.643Z,19.40
2023-06-30T03:09:55.054Z,19.40
2023-06-30T03:12:23.328Z,19.40
2023-06-30T03:14:51.574Z,19.30
2023-06-30T03:17:21.028Z,19.30
2023-06-30T03:19:49.112Z,19.30
2023-06-30T03:22:17.181Z,19.30
2023-06-30T03:24:45.290Z,19.30
2023-06-30T03:27:13.413Z,19.30
2023-06-30T03:29:41.819Z,19.30
2023-06-30T03:32:10.219Z,19.30
2023-06-30T03:34:40.971Z,19.40
2023-06-30T03:37:09.053Z,19.30
2023-06-30T03:39:37.295Z,19.30
2023-06-30T03:42:05.802Z,19.30
2023-06-30T03:44:33.880Z,19.30
2023-06-30T03:47:02.116Z,19.30
2023-06-30T03:49:30.465Z,19.30
2023-06-30T03:51:59.904Z,19.30
2023-06-30T03:54:27.962Z,19.20
2023-06-30T03:56:58.231Z,19.30
2023-06-30T03:59:26.325Z,19.30
2023-06-30T04:01:55.139Z,19.30
2023-06-30T04:04:23.376Z,19.30
2023-06-30T04:06:51.915Z,19.30
2023-06-30T04:09:21.459Z,19.40
2023-06-30T04:11:49.585Z,19.40
2023-06-30T04:14:18.137Z,19.40
2023-06-30T04:16:46.355Z,19.30
2023-06-30T04:19:14.598Z,19.30
2023-06-30T04:21:42.926Z,19.30
2023-06-30T04:24:11.026Z,19.40
2023-06-30T04:26:41.254Z,19.40
2023-06-30T04:29:09.321Z,19.50
2023-06-30T04:31:37.455Z,19.50
2023-06-30T04:34:05.543Z,19.60
2023-06-30T04:36:33.606Z,19.70
2023-06-30T04:39:01.741Z,19.70
2023-06-30T04:41:29.880Z,19.90
2023-06-30T04:44:00.737Z,19.90
2023-06-30T04:46:29.374Z,20.00
2023-06-30T04:48:57.931Z,20.00
2023-06-30T04:51:26.421Z,20.10
2023-06-30T04:53:54.539Z,20.20
2023-06-30T04:56:22.627Z,20.40
2023-06-30T04:58:51.193Z,20.40
2023-06-30T05:01:20.690Z,20.30
2023-06-30T05:03:49.237Z,20.20
2023-06-30T05:06:17.589Z,20.40
2023-06-30T05:08:45.694Z,20.50
2023-06-30T05:11:13.777Z,20.60
2023-06-30T05:13:41.846Z,20.60
2023-06-30T05:16:11.151Z,20.60
2023-06-30T05:18:40.817Z,20.60
2023-06-30T05:21:09.432Z,20.80
2023-06-30T05:23:37.483Z,20.90
2023-06-30T05:26:06.708Z,21.00
2023-06-30T05:28:36.367Z,21.20
2023-06-30T05:31:04.800Z,21.30
2023-06-30T05:33:32.917Z,21.40
2023-06-30T05:36:02.343Z,21.50
2023-06-30T05:38:30.697Z,21.50
2023-06-30T05:41:00.071Z,21.40
2023-06-30T05:43:28.164Z,21.50
2023-06-30T05:45:56.332Z,21.40
2023-06-30T05:48:24.421Z,21.30
2023-06-30T05:50:52.476Z,21.30
2023-06-30T05:53:23.114Z,21.40
2023-06-30T05:55:51.183Z,21.40
2023-06-30T05:58:19.267Z,21.60
2023-06-30T06:00:47.316Z,21.60
2023-06-30T06:03:15.692Z,21.80
2023-06-30T06:05:44.599Z,21.90
2023-06-30T06:08:12.983Z,22.10
2023-06-30T06:10:42.397Z,22.00
2023-06-30T06:13:10.669Z,22.00
2023-06-30T06:15:38.721Z,21.90
2023-06-30T06:18:06.888Z,22.00
2023-06-30T06:20:34.983Z,22.00
2023-06-30T06:23:03.035Z,21.90
2023-06-30T06:25:31.120Z,21.90
2023-06-30T06:28:00.575Z,21.80
2023-06-30T06:30:28.709Z,21.80
2023-06-30T06:32:56.855Z,21.70
2023-06-30T06:35:24.945Z,21.80
2023-06-30T06:37:53.002Z,21.70
2023-06-30T06:40:21.248Z,21.60
2023-06-30T06:42:49.571Z,21.60
2023-06-30T06:45:19.797Z,21.60
2023-06-30T06:48:20.044Z,21.40
2023-06-30T06:50:48.221Z,21.40
2023-06-30T06:53:20.247Z,21.40
2023-06-30T06:55:49.400Z,21.40
2023-06-30T06:58:17.505Z,21.40
2023-06-30T07:00:47.313Z,21.50
2023-06-30T07:03:15.690Z,21.60
2023-06-30T07:05:45.628Z,21.60
2023-06-30T07:08:14.146Z,21.80
2023-06-30T07:10:42.239Z,21.80
2023-06-30T07:13:10.399Z,21.80
2023-06-30T07:15:38.497Z,21.90
2023-06-30T07:18:08.119Z,21.90
2023-06-30T07:20:36.377Z,22.10
2023-06-30T07:23:04.529Z,22.00
2023-06-30T07:25:32.629Z,22.10
2023-06-30T07:28:00.765Z,22.20
2023-06-30T07:30:29.602Z,22.30
2023-06-30T07:32:57.814Z,22.30
2023-06-30T07:35:27.317Z,22.40
2023-06-30T07:37:55.379Z,22.40
2023-06-30T07:40:24.359Z,22.20
2023-06-30T07:42:54.588Z,22.10
2023-06-30T07:45:22.861Z,22.00
2023-06-30T07:47:51.097Z,22.10
2023-06-30T07:50:19.300Z,22.20
2023-06-30T07:52:49.872Z,22.10
2023-06-30T07:55:18.565Z,22.00
2023-06-30T07:57:46.896Z,22.10
2023-06-30T08:00:16.764Z,22.00
2023-06-30T08:02:45.002Z,22.00
2023-06-30T08:05:13.370Z,22.00
2023-06-30T08:07:48.835Z,21.80
2023-06-30T08:10:20.298Z,21.90
2023-06-30T08:12:48.415Z,21.90
2023-06-30T08:15:16.656Z,21.90
2023-06-30T08:17:52.088Z,21.90
2023-06-30T08:20:22.913Z,21.90
2023-06-30T08:22:51.103Z,21.90
2023-06-30T08:25:23.204Z,21.90
2023-06-30T08:27:51.321Z,21.90
2023-06-30T08:30:22.762Z,21.90
2023-06-30T08:32:52.239Z,21.90
2023-06-30T08:35:20.519Z,21.90
2023-06-30T08:37:52.792Z,22.00
2023-06-30T08:40:23.851Z,22.00
2023-06-30T08:42:52.108Z,22.00
2023-06-30T08:45:20.236Z,22.00
2023-06-30T08:47:48.418Z,22.00
2023-06-30T08:50:16.538Z,22.00
2023-06-30T08:52:44.726Z,22.00
2023-06-30T08:55:12.804Z,21.90
2023-06-30T08:57:43.133Z,22.00
2023-06-30T09:00:12.388Z,22.10
2023-06-30T09:02:40.732Z,22.20
2023-06-30T09:05:09.659Z,22.30
2023-06-30T09:07:41.316Z,22.40
2023-06-30T09:10:10.397Z,22.40
2023-06-30T09:12:39.371Z,22.50
2023-06-30T09:15:09.893Z,22.60
2023-06-30T09:17:38.006Z,22.90
2023-06-30T09:20:07.290Z,23.10
2023-06-30T09:22:54.275Z,23.30
2023-06-30T09:25:42.130Z,23.30
2023-06-30T09:28:12.086Z,23.10
2023-06-30T09:30:42.883Z,23.10
2023-06-30T09:33:11.024Z,23.10
2023-06-30T09:35:39.941Z,23.00
2023-06-30T09:38:12.333Z,22.90
2023-06-30T09:40:40.433Z,22.90
2023-06-30T09:43:09.171Z,22.90
2023-06-30T09:45:37.371Z,22.90
2023-06-30T09:48:08.015Z,22.90
2023-06-30T09:50:36.140Z,22.80
2023-06-30T09:53:04.197Z,22.80
2023-06-30T09:55:32.274Z,22.90
2023-06-30T09:58:00.319Z,22.80
2023-06-30T10:00:36.030Z,22.70
2023-06-30T10:03:06.854Z,22.40
2023-06-30T10:05:35.038Z,22.30
2023-06-30T10:08:03.313Z,22.30
2023-06-30T10:10:31.567Z,22.30
2023-06-30T10:13:00.328Z,22.00
2023-06-30T10:15:28.644Z,21.70
2023-06-30T10:17:56.880Z,21.60
2023-06-30T10:20:37.975Z,21.40
2023-06-30T10:23:10.894Z,21.20
2023-06-30T10:25:39.629Z,21.20
2023-06-30T10:28:08.601Z,21.00
2023-06-30T10:30:36.931Z,21.00
2023-06-30T10:33:05.149Z,20.90
2023-06-30T10:35:34.669Z,20.90
2023-06-30T10:38:02.799Z,20.90
2023-06-30T10:40:31.783Z,21.00
2023-06-30T10:43:00.241Z,20.90
2023-06-30T10:45:29.660Z,21.00
2023-06-30T10:47:57.820Z,20.90
2023-06-30T10:50:25.963Z,20.90
2023-06-30T10:52:56.053Z,20.90
2023-06-30T10:55:24.598Z,20.90
2023-06-30T10:57:53.512Z,20.80
2023-06-30T11:00:22.969Z,20.70
2023-06-30T11:02:51.661Z,20.60
2023-06-30T11:05:21.217Z,20.60
2023-06-30T11:07:49.985Z,20.70
2023-06-30T11:10:29.721Z,20.70
2023-06-30T11:12:58.534Z,20.80
2023-06-30T11:15:30.928Z,20.70
2023-06-30T11:18:02.438Z,20.80
2023-06-30T11:20:31.225Z,20.80
2023-06-30T11:23:01.761Z,20.80
2023-06-30T11:25:31.707Z,21.00
2023-06-30T11:28:00.924Z,21.00
2023-06-30T11:30:29.063Z,20.90
2023-06-30T11:32:59.177Z,20.90
2023-06-30T11:35:27.559Z,20.90
2023-06-30T11:37:55.834Z,20.90
2023-06-30T11:40:24.020Z,20.90
2023-06-30T11:42:54.225Z,20.90
2023-06-30T11:45:22.342Z,20.90
2023-06-30T11:47:52.693Z,21.10
2023-06-30T11:50:21.539Z,21.00
2023-06-30T11:52:49.793Z,20.90
2023-06-30T11:55:18.088Z,20.60
2023-06-30T11:57:48.048Z,20.40
2023-06-30T12:00:19.191Z,20.30
2023-06-30T12:03:00.020Z,20.30
2023-06-30T12:05:28.972Z,20.40
2023-06-30T12:07:58.199Z,20.30
2023-06-30T12:10:38.223Z,20.20
2023-06-30T12:13:07.901Z,20.20
2023-06-30T12:15:38.018Z,20.00
2023-06-30T12:18:06.647Z,20.00
2023-06-30T12:20:36.429Z,20.00
2023-06-30T12:23:05.352Z,20.00
2023-06-30T12:25:34.927Z,19.80
2023-06-30T12:28:04.881Z,19.80
2023-06-30T12:30:32.967Z,19.50
2023-06-30T12:33:02.923Z,19.40
2023-06-30T12:35:31.436Z,19.50
2023-06-30T12:38:00.443Z,19.40
2023-06-30T12:40:29.471Z,19.20
2023-06-30T12:42:57.643Z,19.10
2023-06-30T12:45:25.732Z,19.10
2023-06-30T12:47:53.900Z,19.00
2023-06-30T12:50:23.400Z,18.90
2023-06-30T12:52:51.785Z,18.90
2023-06-30T12:55:22.866Z,18.90
2023-06-30T12:57:50.993Z,18.90
2023-06-30T13:00:19.702Z,18.90
2023-06-30T13:02:47.835Z,18.90
2023-06-30T13:05:15.997Z,18.90
2023-06-30T13:07:45.687Z,18.90
2023-06-30T13:10:14.955Z,18.90
2023-06-30T13:12:43.057Z,19.00
2023-06-30T13:15:11.518Z,19.00
2023-06-30T13:17:39.642Z,19.10
2023-06-30T13:20:09.737Z,19.10
2023-06-30T13:22:42.814Z,19.10
2023-06-30T13:25:20.697Z,18.90
2023-06-30T13:27:48.761Z,19.10
2023-06-30T13:30:16.907Z,19.10
2023-06-30T13:32:45.144Z,19.20
2023-06-30T13:35:13.241Z,19.40
2023-06-30T13:37:41.290Z,19.40
2023-06-30T13:40:10.553Z,19.70
2023-06-30T13:42:40.023Z,19.80
2023-06-30T13:45:11.056Z,19.90
2023-06-30T13:47:39.558Z,19.70
2023-06-30T13:50:08.591Z,19.40
2023-06-30T13:52:36.712Z,19.40
2023-06-30T13:55:05.373Z,19.40
2023-06-30T13:57:33.451Z,19.50
2023-06-30T14:00:02.856Z,19.70
2023-06-30T14:02:33.485Z,20.00
2023-06-30T14:05:01.709Z,20.50
2023-06-30T14:07:29.907Z,20.60
2023-06-30T14:09:59.389Z,20.70
2023-06-30T14:12:27.484Z,20.70
2023-06-30T14:14:55.583Z,20.60
2023-06-30T14:17:25.113Z,20.60
2023-06-30T14:19:53.289Z,20.70
2023-06-30T14:22:21.402Z,20.50
2023-06-30T14:24:49.527Z,20.40
2023-06-30T14:27:17.573Z,20.20
2023-06-30T14:29:45.687Z,20.20
2023-06-30T14:32:13.781Z,20.10
2023-06-30T14:34:43.472Z,20.20
2023-06-30T14:37:11.564Z,20.10
2023-06-30T14:39:39.641Z,19.90
2023-06-30T14:42:16.202Z,20.00
2023-06-30T14:44:51.293Z,19.90
2023-06-30T14:47:19.343Z,19.90
2023-06-30T14:49:48.921Z,19.90
2023-06-30T14:52:17.123Z,19.90
2023-06-30T14:54:45.248Z,20.00
2023-06-30T14:57:14.072Z,20.10
2023-06-30T14:59:42.260Z,20.10
2023-06-30T15:02:10.647Z,19.80
2023-06-30T15:04:38.818Z,19.80
2023-06-30T15:07:08.602Z,19.80
2023-06-30T15:09:36.766Z,19.80
2023-06-30T15:12:05.734Z,20.00
2023-06-30T15:14:34.328Z,20.10
2023-06-30T15:17:02.427Z,20.30
2023-06-30T15:19:30.524Z,20.30
2023-06-30T15:21:58.613Z,20.30
2023-06-30T15:24:28.036Z,20.30
2023-06-30T15:26:56.101Z,20.20
2023-06-30T15:29:24.166Z,20.20
2023-06-30T15:31:54.948Z,20.30
2023-06-30T15:34:23.576Z,20.30
2023-06-30T15:36:51.664Z,20.30
2023-06-30T15:39:19.738Z,20.30
2023-06-30T15:41:49.262Z,20.20
2023-06-30T15:44:17.338Z,20.10
2023-06-30T15:46:45.422Z,20.00
2023-06-30T15:49:13.547Z,20.10
2023-06-30T15:51:41.589Z,20.00
2023-06-30T15:54:09.771Z,20.00
2023-06-30T15:56:37.831Z,20.00
2023-06-30T15:59:07.250Z,19.90
2023-06-30T16:01:35.302Z,19.90
2023-06-30T16:04:03.410Z,19.90
2023-06-30T16:06:31.522Z,19.90
2023-06-30T16:08:59.608Z,19.90
2023-06-30T16:11:27.653Z,20.00
2023-06-30T16:13:55.747Z,20.00
2023-06-30T16:16:25.217Z,20.10
2023-06-30T16:18:53.437Z,20.10
2023-06-30T16:21:21.535Z,20.00
2023-06-30T16:23:49.790Z,19.90
2023-06-30T16:26:17.860Z,20.00
2023-06-30T16:28:45.934Z,20.20
2023-06-30T16:31:14.024Z,20.30
2023-06-30T16:33:43.537Z,20.80
2023-06-30T16:36:11.670Z,21.20
2023-06-30T16:38:40.751Z,21.70
2023-06-30T16:41:08.891Z,22.30
2023-06-30T16:43:36.970Z,22.80
2023-06-30T16:46:05.053Z,22.90
2023-06-30T16:48:33.102Z,23.10
2023-06-30T16:51:02.531Z,23.20
2023-06-30T16:53:30.578Z,23.60
2023-06-30T16:55:58.703Z,23.60
2023-06-30T16:58:26.932Z,24.20
2023-06-30T17:00:55.176Z,24.80
2023-06-30T17:03:23.328Z,24.90
2023-06-30T17:05:51.555Z,24.60
2023-06-30T17:08:21.032Z,24.30
2023-06-30T17:10:49.089Z,24.10
2023-06-30T17:13:17.206Z,23.90
2023-06-30T17:15:45.506Z,23.60
2023-06-30T17:18:13.837Z,23.30
2023-06-30T17:20:41.915Z,23.10
2023-06-30T17:23:10.133Z,23.50
2023-06-30T17:25:39.582Z,24.20
2023-06-30T17:28:07.680Z,25.00
2023-06-30T17:30:35.764Z,24.90
2023-06-30T17:33:05.810Z,25.60
2023-06-30T17:35:33.957Z,25.30
2023-06-30T17:38:02.053Z,26.20
2023-06-30T17:40:30.124Z,26.20
2023-06-30T17:42:59.561Z,25.90
2023-06-30T17:45:27.641Z,25.30
2023-06-30T17:47:55.790Z,24.90
2023-06-30T17:50:26.413Z,24.40
2023-06-30T17:52:54.856Z,23.90
2023-06-30T17:55:22.969Z,23.60
2023-06-30T17:57:51.024Z,23.20
2023-06-30T18:00:21.124Z,22.90
2023-06-30T18:02:50.335Z,22.60
2023-06-30T18:05:18.569Z,22.40
2023-06-30T18:07:46.722Z,22.10
2023-06-30T18:10:15.352Z,21.90
2023-06-30T18:12:43.479Z,21.80
2023-06-30T18:15:12.442Z,21.60
2023-06-30T18:17:41.924Z,21.40
2023-06-30T18:20:10.771Z,21.30
2023-06-30T18:22:38.889Z,21.10
2023-06-30T18:25:07.518Z,21.10
2023-06-30T18:27:36.798Z,21.10
2023-06-30T18:30:05.597Z,21.10
2023-06-30T18:32:35.331Z,21.00
2023-06-30T18:35:05.881Z,20.90
2023-06-30T18:37:35.759Z,20.90
2023-06-30T18:40:04.023Z,20.80
2023-06-30T18:42:32.115Z,20.70
2023-06-30T18:45:00.348Z,20.70
2023-06-30T18:47:28.553Z,20.60
2023-06-30T18:49:56.764Z,20.50
2023-06-30T18:52:26.247Z,20.40
2023-06-30T18:54:54.294Z,20.30
2023-06-30T18:57:22.363Z,20.20
2023-06-30T18:59:50.482Z,20.20
2023-06-30T19:02:18.567Z,20.10
2023-06-30T19:04:46.836Z,19.90
2023-06-30T19:07:15.040Z,19.80
2023-06-30T19:09:44.493Z,19.80
2023-06-30T19:12:13.034Z,19.70
2023-06-30T19:14:41.124Z,19.60
2023-06-30T19:17:09.499Z,19.50
2023-06-30T19:19:37.589Z,19.40
2023-06-30T19:22:07.270Z,19.40
2023-06-30T19:24:35.378Z,19.30
2023-06-30T19:27:05.118Z,19.10
2023-06-30T19:29:33.472Z,19.00
2023-06-30T19:32:01.937Z,18.90
2023-06-30T19:34:30.005Z,18.90
2023-06-30T19:36:59.790Z,18.70
2023-06-30T19:39:28.006Z,18.70
2023-06-30T19:41:57.597Z,18.60
2023-06-30T19:44:27.082Z,18.60
2023-06-30T19:46:55.233Z,18.50
2023-06-30T19:49:23.599Z,18.40
2023-06-30T19:51:51.675Z,18.30
2023-06-30T19:54:19.735Z,18.20
2023-06-30T19:56:47.866Z,18.20
2023-06-30T19:59:15.987Z,18.10
2023-06-30T20:01:45.472Z,18.10
2023-06-30T20:04:13.603Z,18.00
2023-06-30T20:06:41.980Z,17.90
2023-06-30T20:09:10.248Z,17.80
2023-06-30T20:11:38.339Z,17.80
2023-06-30T20:14:06.405Z,17.70
2023-06-30T20:16:34.519Z,17.60
2023-06-30T20:19:03.954Z,17.60
2023-06-30T20:21:32.035Z,17.50
2023-06-30T20:24:00.078Z,17.40
2023-06-30T20:26:28.190Z,17.30
2023-06-30T20:28:56.275Z,17.20
2023-06-30T20:31:24.355Z,17.20
2023-06-30T20:33:52.503Z,17.10
2023-06-30T20:36:22.046Z,17.10
2023-06-30T20:38:50.141Z,17.10
2023-06-30T20:41:18.193Z,17.00
2023-06-30T20:43:46.281Z,17.00
2023-06-30T20:46:14.396Z,17.00
2023-06-30T20:48:42.519Z,16.90
2023-06-30T20:51:10.555Z,16.90
2023-06-30T20:53:39.982Z,16.80
2023-06-30T20:56:08.040Z,16.70
2023-06-30T20:58:36.138Z,16.70
2023-06-30T21:01:04.206Z,16.60
2023-06-30T21:03:32.500Z,16.60
2023-06-30T21:06:00.655Z,16.60
2023-06-30T21:08:28.753Z,16.50
2023-06-30T21:10:58.199Z,16.50
2023-06-30T21:13:26.253Z,16.50
2023-06-30T21:15:54.364Z,16.40
2023-06-30T21:18:22.463Z,16.40
2023-06-30T21:20:50.527Z,16.40
2023-06-30T21:23:18.591Z,16.30
2023-06-30T21:25:46.682Z,16.30
2023-06-30T21:28:16.939Z,16.30
2023-06-30T21:30:46.742Z,16.20
2023-06-30T21:33:15.385Z,16.20
2023-06-30T21:35:43.536Z,16.10
2023-06-30T21:38:11.594Z,16.10
2023-06-30T21:40:39.676Z,16.10
2023-06-30T21:43:07.747Z,16.00
2023-06-30T21:45:37.175Z,16.00
2023-06-30T21:48:05.816Z,16.00
2023-06-30T21:50:33.904Z,16.00
2023-06-30T21:53:01.973Z,15.90
2023-06-30T21:55:30.059Z,15.90
2023-06-30T21:57:58.140Z,15.90
2023-06-30T22:00:26.182Z,15.80
2023-06-30T22:02:57.598Z,15.80
2023-06-30T22:05:26.963Z,15.80
2023-06-30T22:07:56.112Z,15.70
2023-06-30T22:10:25.305Z,15.70
2023-06-30T22:12:53.387Z,15.70
2023-06-30T22:15:23.150Z,15.70
2023-06-30T22:17:52.587Z,15.60
2023-06-30T22:20:22.963Z,15.60
2023-06-30T22:22:51.068Z,15.60
2023-06-30T22:25:21.550Z,15.50
2023-06-30T22:27:53.901Z,15.50
2023-06-30T22:30:22.159Z,15.50
2023-06-30T22:32:50.326Z,15.40
2023-06-30T22:35:18.474Z,15.40
2023-06-30T22:37:47.965Z,15.40
2023-06-30T22:40:17.293Z,15.40
2023-06-30T22:42:45.415Z,15.40
2023-06-30T22:45:13.571Z,15.30
2023-06-30T22:47:41.664Z,15.30
2023-06-30T22:50:10.490Z,15.30
2023-06-30T22:52:39.716Z,15.30
2023-06-30T22:55:10.408Z,15.30
2023-06-30T22:57:38.569Z,15.20
2023-06-30T23:00:07.694Z,15.20
2023-06-30T23:02:35.774Z,15.20
2023-06-30T23:05:04.764Z,15.20
2023-06-30T23:07:33.005Z,15.20
2023-06-30T23:10:01.072Z,15.10
2023-06-30T23:12:30.571Z,15.10
2023-06-30T23:14:58.643Z,15.10
2023-06-30T23:17:28.251Z,15.10
2023-06-30T23:19:56.834Z,15.10
2023-06-30T23:22:27.246Z,15.00
2023-06-30T23:24:55.394Z,15.00
2023-06-30T23:27:24.466Z,15.00
2023-06-30T23:29:54.140Z,15.00
2023-06-30T23:32:22.436Z,14.90
2023-06-30T23:34:50.646Z,14.90
2023-06-30T23:37:19.176Z,14.90
2023-06-30T23:39:48.446Z,14.80
2023-06-30T23:42:16.723Z,14.80
2023-06-30T23:44:44.786Z,14.80
2023-06-30T23:47:17.840Z,14.80
2023-06-30T23:49:47.388Z,14.70
2023-06-30T23:52:16.638Z,14.70
2023-06-30T23:54:44.999Z,14.70
2023-06-30T23:57:13.311Z,14.70
2023-06-30T23:59:41.407Z,14.70
